Time;durP1;ratioP1;P1;durP2;ratioP2;P2;SDS_P1;SDS_P2;PMS_P1;PMS_P2;Temp;Humidity;BMP_temperature;BMP_pressure;BME280_temperature;BME280_humidity;BME280_pressure;Samples;Min_cycle;Max_cycle;Signal;HPM_P1;HPM_P2
2023/05/14 00:01:07;;;;;;;37.30;19.85;;;;;;;;;;6179841;23;20013;-77
2023/05/14 00:03:32;;;;;;;31.80;19.73;;;;;;;;;;6180477;23;20084;-76
2023/05/14 00:05:58;;;;;;;31.05;19.08;;;;;;;;;;6182144;23;20004;-77
2023/05/14 00:08:23;;;;;;;27.27;18.05;;;;;;;;;;6181740;23;20024;-78
2023/05/14 00:10:48;;;;;;;31.63;17.45;;;;;;;;;;6180333;23;20104;-76
2023/05/14 00:13:16;;;;;;;25.75;16.70;;;;;;;;;;6155340;23;20009;-76
2023/05/14 00:15:42;;;;;;;26.63;16.55;;;;;;;;;;6154192;23;20092;-76
2023/05/14 00:18:10;;;;;;;32.40;18.85;;;;;;;;;;6153500;23;20095;-76
2023/05/14 00:20:36;;;;;;;26.55;15.45;;;;;;;;;;6182398;23;20076;-76
2023/05/14 00:23:01;;;;;;;28.38;16.23;;;;;;;;;;6156680;23;20037;-77
2023/05/14 00:25:26;;;;;;;23.20;15.52;;;;;;;;;;6181701;23;20461;-77
2023/05/14 00:27:52;;;;;;;24.85;14.75;;;;;;;;;;6182079;23;20336;-77
2023/05/14 00:30:17;;;;;;;26.23;16.73;;;;;;;;;;6153937;23;20001;-77
2023/05/14 00:32:42;;;;;;;26.27;16.55;;;;;;;;;;6182047;23;20001;-77
2023/05/14 00:35:08;;;;;;;22.88;14.30;;;;;;;;;;6181881;23;20569;-77
2023/05/14 00:37:33;;;;;;;23.90;15.68;;;;;;;;;;6183115;23;20021;-76
2023/05/14 00:39:59;;;;;;;23.20;14.50;;;;;;;;;;6180751;23;20341;-76
2023/05/14 00:42:25;;;;;;;21.33;13.35;;;;;;;;;;6181151;23;20021;-77
2023/05/14 00:44:52;;;;;;;18.75;13.60;;;;;;;;;;6180972;23;20009;-77
2023/05/14 00:47:17;;;;;;;19.42;13.43;;;;;;;;;;6154695;23;20021;-76
2023/05/14 00:49:43;;;;;;;19.08;13.93;;;;;;;;;;6157310;23;20068;-81
2023/05/14 00:52:09;;;;;;;27.83;12.50;;;;;;;;;;6160221;23;20021;-81
2023/05/14 00:54:35;;;;;;;22.30;13.55;;;;;;;;;;6186793;23;20024;-81
2023/05/14 00:57:01;;;;;;;22.70;14.75;;;;;;;;;;6162519;23;20008;-81
2023/05/14 00:59:26;;;;;;;19.25;13.48;;;;;;;;;;6187144;23;20352;-79
2023/05/14 01:01:51;;;;;;;21.38;15.35;;;;;;;;;;6186185;23;20013;-80
2023/05/14 01:04:17;;;;;;;25.40;15.98;;;;;;;;;;6159323;23;20055;-81
2023/05/14 01:07:38;;;;;;;22.27;15.48;;;;;;;;;;6159546;23;20009;-79
2023/05/14 01:10:21;;;;;;;22.88;15.30;;;;;;;;;;6105281;23;20061;-80
2023/05/14 01:13:07;;;;;;;31.08;18.05;;;;;;;;;;6187455;23;20013;-80
2023/05/14 01:15:34;;;;;;;26.80;16.67;;;;;;;;;;6160381;23;20017;-80
2023/05/14 01:18:07;;;;;;;25.33;17.00;;;;;;;;;;6188587;23;20005;-79
2023/05/14 01:20:33;;;;;;;25.60;16.13;;;;;;;;;;6161041;23;20005;-80
2023/05/14 01:22:58;;;;;;;22.83;16.42;;;;;;;;;;6161185;23;20267;-80
2023/05/14 01:25:23;;;;;;;19.63;13.93;;;;;;;;;;6187421;23;20017;-80
2023/05/14 01:28:07;;;;;;;20.55;15.15;;;;;;;;;;6161492;23;20016;-80
2023/05/14 01:30:36;;;;;;;22.15;14.55;;;;;;;;;;6160443;23;20017;-80
2023/05/14 01:33:05;;;;;;;18.50;12.98;;;;;;;;;;6161373;23;20005;-80
2023/05/14 01:35:30;;;;;;;20.00;13.35;;;;;;;;;;6187237;23;20353;-80
2023/05/14 01:37:59;;;;;;;19.20;13.95;;;;;;;;;;6160842;23;20025;-80
2023/05/14 01:40:25;;;;;;;24.70;16.45;;;;;;;;;;6187780;23;20021;-80
2023/05/14 01:42:52;;;;;;;20.15;13.70;;;;;;;;;;6162175;23;20059;-80
2023/05/14 01:45:21;;;;;;;20.73;14.43;;;;;;;;;;6161341;23;20009;-81
2023/05/14 01:47:46;;;;;;;21.13;14.70;;;;;;;;;;6162697;23;20005;-81
2023/05/14 01:50:11;;;;;;;21.30;14.02;;;;;;;;;;6161637;23;20023;-80
2023/05/14 01:52:37;;;;;;;20.80;14.05;;;;;;;;;;6163663;23;20068;-80
2023/05/14 01:55:03;;;;;;;20.02;14.35;;;;;;;;;;6163633;23;20013;-80
2023/05/14 01:57:29;;;;;;;21.67;13.95;;;;;;;;;;6163207;23;20024;-80
2023/05/14 01:59:54;;;;;;;20.92;13.90;;;;;;;;;;6163857;23;19997;-80
2023/05/14 02:02:20;;;;;;;23.40;14.40;;;;;;;;;;6162745;23;20020;-80
2023/05/14 02:04:45;;;;;;;17.27;12.52;;;;;;;;;;6150519;23;20381;-81
2023/05/14 02:07:11;;;;;;;20.52;13.50;;;;;;;;;;6163835;23;20017;-81
2023/05/14 02:09:36;;;;;;;24.20;14.88;;;;;;;;;;6163431;23;20087;-81
2023/05/14 02:12:01;;;;;;;21.10;14.35;;;;;;;;;;6164392;23;20441;-80
2023/05/14 02:14:27;;;;;;;22.05;14.98;;;;;;;;;;6163629;23;20428;-80
2023/05/14 02:16:52;;;;;;;25.00;15.77;;;;;;;;;;6190129;23;20017;-81
2023/05/14 02:19:17;;;;;;;21.48;14.48;;;;;;;;;;6163580;23;20095;-80
2023/05/14 02:21:43;;;;;;;26.40;14.65;;;;;;;;;;6190099;23;20075;-80
2023/05/14 02:24:08;;;;;;;30.67;14.90;;;;;;;;;;6190085;23;20001;-80
2023/05/14 02:26:33;;;;;;;21.25;14.30;;;;;;;;;;6164247;23;20025;-81
2023/05/14 02:28:58;;;;;;;28.40;15.00;;;;;;;;;;6189238;23;20152;-81
2023/05/14 02:31:24;;;;;;;19.67;14.23;;;;;;;;;;6189112;23;20013;-81
2023/05/14 02:33:49;;;;;;;22.00;14.90;;;;;;;;;;6163530;23;20035;-81
2023/05/14 02:36:14;;;;;;;24.55;15.38;;;;;;;;;;6162456;23;20008;-81
2023/05/14 02:38:40;;;;;;;23.98;15.93;;;;;;;;;;6190421;23;20001;-80
2023/05/14 02:41:05;;;;;;;25.52;15.25;;;;;;;;;;6188388;23;20464;-81
2023/05/14 02:43:30;;;;;;;22.95;15.43;;;;;;;;;;6189242;23;20017;-81
2023/05/14 02:45:56;;;;;;;26.13;15.57;;;;;;;;;;6189066;23;20044;-82
2023/05/14 02:48:21;;;;;;;30.42;15.35;;;;;;;;;;6162477;23;20008;-81
2023/05/14 02:50:50;;;;;;;39.33;16.05;;;;;;;;;;6190408;23;20373;-81
2023/05/14 02:53:15;;;;;;;36.05;17.02;;;;;;;;;;6189545;23;20021;-80
2023/05/14 02:55:41;;;;;;;24.98;14.95;;;;;;;;;;6163089;23;20077;-81
2023/05/14 02:58:06;;;;;;;27.73;15.77;;;;;;;;;;6163047;23;20392;-80
2023/05/14 03:00:31;;;;;;;25.13;14.20;;;;;;;;;;6189766;23;20013;-81
2023/05/14 03:02:56;;;;;;;26.08;14.48;;;;;;;;;;6162685;23;20004;-81
2023/05/14 03:05:22;;;;;;;28.55;15.57;;;;;;;;;;6162945;23;20128;-81
2023/05/14 03:07:50;;;;;;;29.30;15.50;;;;;;;;;;6188991;23;20027;-79
2023/05/14 03:10:15;;;;;;;27.60;14.73;;;;;;;;;;6162277;23;20025;-83
2023/05/14 03:12:41;;;;;;;30.45;15.90;;;;;;;;;;6162278;23;20483;-82
2023/05/14 03:15:07;;;;;;;26.67;15.02;;;;;;;;;;6189189;23;20005;-82
2023/05/14 03:17:33;;;;;;;35.08;15.95;;;;;;;;;;6162708;23;20003;-81
2023/05/14 03:19:58;;;;;;;33.33;16.88;;;;;;;;;;6188795;23;20373;-82
2023/05/14 03:22:24;;;;;;;29.73;17.08;;;;;;;;;;6161924;23;20035;-82
2023/05/14 03:24:49;;;;;;;39.78;18.65;;;;;;;;;;6163067;23;20096;-81
2023/05/14 03:27:14;;;;;;;39.92;17.52;;;;;;;;;;6162293;23;20004;-82
2023/05/14 03:29:40;;;;;;;38.33;18.67;;;;;;;;;;6189198;23;20155;-81
2023/05/14 03:32:05;;;;;;;38.08;18.17;;;;;;;;;;6161874;23;20024;-82
2023/05/14 03:34:31;;;;;;;32.63;17.55;;;;;;;;;;6162037;23;20041;-81
2023/05/14 03:36:56;;;;;;;49.42;18.92;;;;;;;;;;6162034;23;20060;-82
2023/05/14 03:39:22;;;;;;;35.83;17.42;;;;;;;;;;6161894;23;20021;-81
2023/05/14 03:41:47;;;;;;;33.15;15.27;;;;;;;;;;6163364;23;20087;-82
2023/05/14 03:44:13;;;;;;;30.50;15.82;;;;;;;;;;6162508;23;20526;-81
2023/05/14 03:46:38;;;;;;;35.00;15.60;;;;;;;;;;6162332;23;20023;-81
2023/05/14 03:49:04;;;;;;;32.50;13.13;;;;;;;;;;6188478;23;20041;-82
2023/05/14 03:51:30;;;;;;;34.42;15.70;;;;;;;;;;6162254;23;20016;-82
2023/05/14 03:53:57;;;;;;;35.40;14.63;;;;;;;;;;6163436;23;20426;-83
2023/05/14 03:56:22;;;;;;;27.55;13.18;;;;;;;;;;6162791;23;20028;-82
2023/05/14 03:58:47;;;;;;;29.90;12.80;;;;;;;;;;6188557;23;20032;-82
2023/05/14 04:01:12;;;;;;;27.92;13.10;;;;;;;;;;6161471;23;20013;-83
2023/05/14 04:03:38;;;;;;;22.27;12.88;;;;;;;;;;6161088;23;20208;-83
2023/05/14 04:06:04;;;;;;;24.73;12.15;;;;;;;;;;6160789;23;20017;-83
2023/05/14 04:08:29;;;;;;;26.80;12.35;;;;;;;;;;6187715;23;20005;-82
2023/05/14 04:10:55;;;;;;;29.50;13.70;;;;;;;;;;6188388;23;20040;-83
2023/05/14 04:13:20;;;;;;;35.67;14.05;;;;;;;;;;6187900;23;20017;-82
2023/05/14 04:15:45;;;;;;;30.27;12.68;;;;;;;;;;6161666;23;20017;-81
2023/05/14 04:18:11;;;;;;;22.83;11.68;;;;;;;;;;6161705;23;20111;-82
2023/05/14 04:20:36;;;;;;;27.77;13.10;;;;;;;;;;6162500;23;20009;-83
2023/05/14 04:23:04;;;;;;;31.67;12.93;;;;;;;;;;6161863;23;20017;-82
2023/05/14 04:25:29;;;;;;;23.77;12.27;;;;;;;;;;6161110;23;20013;-82
2023/05/14 04:27:54;;;;;;;30.38;14.38;;;;;;;;;;6161473;23;20016;-83
2023/05/14 04:30:20;;;;;;;25.60;14.18;;;;;;;;;;6161101;23;20005;-82
2023/05/14 04:32:45;;;;;;;32.92;16.05;;;;;;;;;;6188018;23;20039;-83
2023/05/14 04:35:11;;;;;;;36.05;15.70;;;;;;;;;;6186788;23;20028;-82
2023/05/14 04:37:37;;;;;;;52.63;18.05;;;;;;;;;;6161816;23;20541;-83
2023/05/14 04:40:04;;;;;;;54.95;18.20;;;;;;;;;;6188168;23;20013;-81
2023/05/14 04:42:30;;;;;;;78.43;18.25;;;;;;;;;;6161680;23;20460;-81
2023/05/14 04:44:55;;;;;;;127.60;18.10;;;;;;;;;;6163560;23;20009;-80
2023/05/14 04:47:21;;;;;;;189.95;20.35;;;;;;;;;;6163040;23;20043;-82
2023/05/14 04:49:46;;;;;;;81.75;19.35;;;;;;;;;;6188899;23;20037;-80
2023/05/14 04:52:11;;;;;;;102.53;21.10;;;;;;;;;;6162448;23;20013;-83
2023/05/14 04:54:37;;;;;;;175.65;20.23;;;;;;;;;;6161161;23;20071;-82
2023/05/14 04:57:02;;;;;;;152.95;21.65;;;;;;;;;;6162902;23;20005;-80
2023/05/14 04:59:28;;;;;;;71.43;22.42;;;;;;;;;;6163280;23;20033;-83
2023/05/14 05:01:54;;;;;;;96.97;22.70;;;;;;;;;;6189294;23;20013;-80
2023/05/14 05:04:19;;;;;;;68.30;23.25;;;;;;;;;;6188642;23;20518;-81
2023/05/14 05:06:45;;;;;;;59.03;22.77;;;;;;;;;;6162028;23;20495;-81
2023/05/14 05:09:10;;;;;;;58.60;23.30;;;;;;;;;;6188314;23;20000;-80
2023/05/14 05:11:36;;;;;;;53.38;22.30;;;;;;;;;;6163499;23;20031;-81
2023/05/14 05:14:02;;;;;;;131.50;26.90;;;;;;;;;;6188353;23;20342;-82
2023/05/14 05:16:27;;;;;;;85.55;26.45;;;;;;;;;;6163761;23;20016;-82
2023/05/14 05:18:52;;;;;;;59.42;23.83;;;;;;;;;;6189991;23;20365;-81
2023/05/14 05:21:18;;;;;;;61.85;25.00;;;;;;;;;;6163740;23;20281;-83
2023/05/14 05:23:43;;;;;;;54.33;23.23;;;;;;;;;;6163803;23;20398;-81
2023/05/14 05:26:08;;;;;;;50.22;21.67;;;;;;;;;;6162676;23;20076;-81
2023/05/14 05:28:33;;;;;;;55.47;23.13;;;;;;;;;;6162383;23;20453;-80
2023/05/14 05:30:59;;;;;;;51.03;22.67;;;;;;;;;;6163374;23;20016;-81
2023/05/14 05:33:24;;;;;;;44.67;21.20;;;;;;;;;;6190139;23;20099;-82
2023/05/14 05:35:51;;;;;;;43.35;20.33;;;;;;;;;;6190858;23;20062;-82
2023/05/14 05:38:17;;;;;;;39.47;17.75;;;;;;;;;;6189121;23;20365;-83
2023/05/14 05:40:42;;;;;;;36.70;19.08;;;;;;;;;;6162818;23;20021;-83
2023/05/14 05:43:07;;;;;;;41.70;19.23;;;;;;;;;;6161963;23;20009;-81
2023/05/14 05:45:33;;;;;;;40.63;18.58;;;;;;;;;;6160107;23;20017;-81
2023/05/14 05:47:58;;;;;;;37.15;18.88;;;;;;;;;;6187285;23;20012;-83
2023/05/14 05:50:25;;;;;;;38.35;19.38;;;;;;;;;;6159615;23;20019;-80
2023/05/14 05:52:51;;;;;;;38.17;17.58;;;;;;;;;;6160088;23;20473;-80
2023/05/14 05:55:16;;;;;;;35.35;17.60;;;;;;;;;;6186265;23;20046;-81
2023/05/14 05:57:42;;;;;;;37.58;17.75;;;;;;;;;;6160014;23;20017;-80
2023/05/14 06:00:14;;;;;;;72.32;17.58;;;;;;;;;;6160077;23;20341;-80
2023/05/14 06:02:42;;;;;;;97.30;19.83;;;;;;;;;;6160440;23;20005;-79
2023/05/14 06:05:09;;;;;;;174.85;21.95;;;;;;;;;;6186362;23;20017;-79
2023/05/14 06:07:34;;;;;;;307.55;25.48;;;;;;;;;;6160131;23;20051;-80
2023/05/14 06:10:00;;;;;;;342.38;26.98;;;;;;;;;;6160527;23;20036;-81
2023/05/14 06:12:25;;;;;;;267.85;22.85;;;;;;;;;;6186603;23;20017;-81
2023/05/14 06:14:54;;;;;;;308.00;26.00;;;;;;;;;;6188276;23;20009;-80
2023/05/14 06:17:19;;;;;;;211.38;23.63;;;;;;;;;;6161550;23;20017;-82
2023/05/14 06:19:44;;;;;;;293.67;25.98;;;;;;;;;;6161590;23;20019;-80
2023/05/14 06:22:09;;;;;;;269.10;26.05;;;;;;;;;;6160760;23;20009;-81
2023/05/14 06:24:35;;;;;;;314.48;26.23;;;;;;;;;;6187544;23;20061;-80
2023/05/14 06:27:00;;;;;;;228.27;24.83;;;;;;;;;;6162733;23;20051;-80
2023/05/14 06:29:25;;;;;;;278.52;26.98;;;;;;;;;;6187892;23;20013;-80
2023/05/14 06:31:50;;;;;;;216.13;26.30;;;;;;;;;;6188189;23;20021;-82
2023/05/14 06:34:16;;;;;;;181.57;23.13;;;;;;;;;;6187892;23;20040;-82
2023/05/14 06:36:41;;;;;;;61.85;21.17;;;;;;;;;;6160852;23;20023;-82
2023/05/14 06:39:06;;;;;;;188.90;25.40;;;;;;;;;;6162230;23;20005;-80
2023/05/14 06:41:32;;;;;;;156.00;24.70;;;;;;;;;;6189967;23;20413;-80
2023/05/14 06:43:57;;;;;;;208.63;24.15;;;;;;;;;;6162015;23;20013;-80
2023/05/14 06:46:22;;;;;;;85.55;23.70;;;;;;;;;;6189162;23;20017;-80
2023/05/14 06:48:48;;;;;;;94.57;22.77;;;;;;;;;;6162275;23;20073;-80
2023/05/14 06:51:13;;;;;;;186.10;26.20;;;;;;;;;;6189162;23;20302;-79
2023/05/14 06:53:39;;;;;;;65.45;22.67;;;;;;;;;;6162785;23;20361;-80
2023/05/14 06:56:04;;;;;;;100.68;23.27;;;;;;;;;;6162822;23;20024;-80
2023/05/14 06:58:30;;;;;;;112.47;22.70;;;;;;;;;;6162319;23;20357;-80
2023/05/14 07:00:55;;;;;;;50.05;21.65;;;;;;;;;;6189772;23;20005;-80
2023/05/14 07:03:21;;;;;;;45.08;19.92;;;;;;;;;;6188872;23;20084;-80
2023/05/14 07:05:46;;;;;;;41.88;17.65;;;;;;;;;;6162903;23;20444;-80
2023/05/14 07:08:12;;;;;;;61.38;17.40;;;;;;;;;;6188172;23;20065;-80
2023/05/14 07:10:38;;;;;;;50.35;20.38;;;;;;;;;;6162282;23;20028;-81
2023/05/14 07:13:04;;;;;;;40.55;18.95;;;;;;;;;;6162646;23;20013;-80
2023/05/14 07:15:29;;;;;;;37.70;17.65;;;;;;;;;;6161429;23;20072;-80
2023/05/14 07:17:54;;;;;;;38.72;17.77;;;;;;;;;;6162731;23;20069;-80
2023/05/14 07:20:22;;;;;;;31.88;14.40;;;;;;;;;;6188498;23;20017;-80
2023/05/14 07:22:48;;;;;;;27.48;13.38;;;;;;;;;;6160683;23;20028;-79
2023/05/14 07:25:13;;;;;;;28.10;14.60;;;;;;;;;;6186722;23;20013;-80
2023/05/14 07:27:38;;;;;;;25.52;13.93;;;;;;;;;;6161093;23;20044;-80
2023/05/14 07:30:04;;;;;;;27.17;14.98;;;;;;;;;;6160854;23;20036;-80
2023/05/14 07:32:30;;;;;;;28.40;15.55;;;;;;;;;;6161946;23;20036;-80
2023/05/14 07:34:55;;;;;;;28.50;14.50;;;;;;;;;;6160638;23;20028;-80
2023/05/14 07:37:21;;;;;;;36.03;16.45;;;;;;;;;;6160741;23;20024;-80
2023/05/14 07:39:47;;;;;;;67.32;15.68;;;;;;;;;;6187251;23;20009;-81
2023/05/14 07:42:12;;;;;;;71.13;17.50;;;;;;;;;;6160822;23;20009;-80
2023/05/14 07:44:37;;;;;;;71.28;18.52;;;;;;;;;;6187602;23;20005;-80
2023/05/14 07:47:03;;;;;;;37.05;17.27;;;;;;;;;;6187270;23;20009;-80
2023/05/14 07:49:28;;;;;;;33.28;14.63;;;;;;;;;;6186894;23;20093;-80
2023/05/14 07:51:53;;;;;;;33.53;14.93;;;;;;;;;;6187309;23;20017;-80
2023/05/14 07:54:19;;;;;;;29.73;13.80;;;;;;;;;;6161678;23;20001;-80
2023/05/14 07:56:44;;;;;;;31.10;14.63;;;;;;;;;;6162421;23;20067;-80
2023/05/14 07:59:09;;;;;;;31.63;14.57;;;;;;;;;;6161184;23;20013;-80
2023/05/14 08:01:35;;;;;;;27.05;14.02;;;;;;;;;;6161499;23;20017;-80
2023/05/14 08:04:00;;;;;;;33.15;14.68;;;;;;;;;;6160862;23;20013;-79
2023/05/14 08:06:26;;;;;;;40.65;16.60;;;;;;;;;;6161176;23;20398;-80
2023/05/14 08:08:51;;;;;;;41.15;18.13;;;;;;;;;;6187933;23;20028;-81
2023/05/14 08:11:17;;;;;;;39.95;18.00;;;;;;;;;;6187038;23;20021;-81
2023/05/14 08:13:42;;;;;;;41.10;17.35;;;;;;;;;;6160140;23;20020;-81
2023/05/14 08:16:08;;;;;;;47.85;18.00;;;;;;;;;;6161132;23;20005;-80
2023/05/14 08:18:33;;;;;;;61.60;18.13;;;;;;;;;;6161158;23;20015;-80
2023/05/14 08:20:58;;;;;;;43.70;18.40;;;;;;;;;;6161718;23;20408;-80
2023/05/14 08:23:25;;;;;;;33.47;14.90;;;;;;;;;;6159990;23;20027;-80
2023/05/14 08:25:50;;;;;;;37.63;16.10;;;;;;;;;;6159849;23;20028;-80
2023/05/14 08:28:16;;;;;;;37.42;16.27;;;;;;;;;;6159987;23;20013;-80
2023/05/14 08:30:41;;;;;;;34.45;16.33;;;;;;;;;;6187124;23;20021;-80
2023/05/14 08:33:06;;;;;;;44.47;18.02;;;;;;;;;;6159763;23;20104;-80
2023/05/14 08:35:31;;;;;;;40.65;18.30;;;;;;;;;;6160067;23;20036;-80
2023/05/14 08:37:57;;;;;;;39.63;16.55;;;;;;;;;;6160661;23;20413;-80
2023/05/14 08:40:22;;;;;;;42.42;17.50;;;;;;;;;;6160060;23;20021;-80
2023/05/14 08:42:50;;;;;;;37.05;16.85;;;;;;;;;;6160523;23;20005;-79
2023/05/14 08:45:18;;;;;;;35.92;16.80;;;;;;;;;;6186319;23;20005;-80
2023/05/14 08:47:49;;;;;;;32.97;16.42;;;;;;;;;;6160360;23;20001;-79
2023/05/14 08:50:15;;;;;;;31.45;14.88;;;;;;;;;;6160128;23;20028;-80
2023/05/14 08:52:40;;;;;;;34.35;15.65;;;;;;;;;;6159973;23;20096;-80
2023/05/14 08:55:06;;;;;;;24.90;12.80;;;;;;;;;;6186205;23;20464;-80
2023/05/14 08:57:33;;;;;;;20.70;12.43;;;;;;;;;;6154452;23;20132;-79
2023/05/14 08:59:58;;;;;;;24.75;13.10;;;;;;;;;;6199684;23;20029;-78
2023/05/14 09:02:27;;;;;;;22.25;12.13;;;;;;;;;;6155210;23;20020;-78
2023/05/14 09:04:55;;;;;;;21.65;12.25;;;;;;;;;;6181993;23;20457;-78
2023/05/14 09:07:21;;;;;;;24.80;13.40;;;;;;;;;;6182321;23;20017;-78
2023/05/14 09:09:47;;;;;;;19.38;11.48;;;;;;;;;;6182418;23;20352;-78
2023/05/14 09:12:12;;;;;;;22.80;12.55;;;;;;;;;;6182242;23;20013;-78
2023/05/14 09:14:38;;;;;;;23.77;13.00;;;;;;;;;;6183652;23;20079;-78
2023/05/14 09:17:03;;;;;;;22.38;13.90;;;;;;;;;;6156018;23;20025;-78
2023/05/14 09:19:28;;;;;;;31.75;13.82;;;;;;;;;;6182496;23;20294;-78
2023/05/14 09:21:57;;;;;;;21.17;12.93;;;;;;;;;;6184418;23;20012;-78
2023/05/14 09:24:24;;;;;;;24.42;14.57;;;;;;;;;;6183502;23;20027;-78
2023/05/14 09:26:52;;;;;;;25.00;13.43;;;;;;;;;;6157533;23;20055;-78
2023/05/14 09:29:18;;;;;;;24.92;14.57;;;;;;;;;;6182671;23;20021;-78
2023/05/14 09:31:44;;;;;;;23.60;12.65;;;;;;;;;;6156423;23;20021;-79
2023/05/14 09:34:09;;;;;;;28.15;12.95;;;;;;;;;;6182904;23;20401;-78
2023/05/14 09:36:35;;;;;;;25.60;13.57;;;;;;;;;;6156444;23;20044;-78
2023/05/14 09:39:03;;;;;;;24.52;13.88;;;;;;;;;;6182356;23;20012;-78
2023/05/14 09:41:28;;;;;;;22.95;13.63;;;;;;;;;;6182908;23;20457;-78
2023/05/14 09:43:55;;;;;;;21.55;13.07;;;;;;;;;;6181707;23;20020;-78
2023/05/14 09:46:21;;;;;;;19.50;11.88;;;;;;;;;;6156007;23;20036;-78
2023/05/14 09:48:46;;;;;;;18.80;11.23;;;;;;;;;;6182123;23;20465;-78
2023/05/14 09:51:12;;;;;;;17.77;10.45;;;;;;;;;;6155809;23;20044;-79
2023/05/14 09:53:38;;;;;;;18.77;10.45;;;;;;;;;;6183171;23;20141;-79
2023/05/14 09:56:04;;;;;;;15.23;9.00;;;;;;;;;;6182641;23;20052;-79
2023/05/14 09:59:15;;;;;;;13.95;8.45;;;;;;;;;;6178961;23;20020;-79
2023/05/14 10:05:31;;;;;;;10.75;6.88;;;;;;;;;;6151849;23;20020;-79
2023/05/14 10:07:58;;;;;;;13.65;7.70;;;;;;;;;;6167852;23;20056;-83
2023/05/14 10:10:27;;;;;;;9.98;6.57;;;;;;;;;;6220347;22;20021;-82
2023/05/14 10:12:57;;;;;;;12.38;6.72;;;;;;;;;;6222757;23;20016;-83
2023/05/14 10:15:28;;;;;;;9.57;7.25;;;;;;;;;;6222192;23;20083;-81
2023/05/14 10:17:56;;;;;;;13.55;9.52;;;;;;;;;;6221522;23;20008;-80
2023/05/14 10:20:23;;;;;;;17.27;10.30;;;;;;;;;;6222069;23;20020;-82
2023/05/14 10:22:49;;;;;;;13.35;8.63;;;;;;;;;;6222708;23;20024;-81
2023/05/14 10:25:15;;;;;;;21.05;11.27;;;;;;;;;;6221910;23;20051;-82
2023/05/14 10:27:41;;;;;;;16.58;10.15;;;;;;;;;;6208860;23;20036;-82
2023/05/14 10:30:11;;;;;;;18.65;10.23;;;;;;;;;;6220634;23;20429;-80
2023/05/14 10:32:37;;;;;;;31.60;13.35;;;;;;;;;;6223222;23;20011;-81
2023/05/14 10:35:15;;;;;;;25.67;13.52;;;;;;;;;;6222976;23;20020;-80
2023/05/14 10:37:40;;;;;;;21.45;12.43;;;;;;;;;;6222398;23;20020;-80
2023/05/14 10:40:08;;;;;;;21.23;12.82;;;;;;;;;;6221240;23;20048;-80
2023/05/14 10:42:39;;;;;;;20.02;12.48;;;;;;;;;;6221239;23;20016;-81
2023/05/14 10:45:07;;;;;;;21.95;12.20;;;;;;;;;;6221417;23;20047;-80
2023/05/14 10:47:34;;;;;;;18.23;10.82;;;;;;;;;;6222516;23;20368;-81
2023/05/14 10:50:02;;;;;;;17.05;10.57;;;;;;;;;;6222080;23;20391;-81
2023/05/14 10:52:28;;;;;;;20.83;12.18;;;;;;;;;;6221479;23;20051;-82
2023/05/14 10:54:58;;;;;;;20.73;10.80;;;;;;;;;;6219394;23;20012;-80
2023/05/14 10:57:26;;;;;;;20.70;11.30;;;;;;;;;;6222223;23;20012;-81
2023/05/14 10:59:54;;;;;;;15.98;9.95;;;;;;;;;;6222824;23;20001;-81
2023/05/14 11:02:28;;;;;;;19.05;11.30;;;;;;;;;;6220327;23;20020;-80
2023/05/14 11:05:15;;;;;;;17.55;10.65;;;;;;;;;;6220673;23;20020;-81
2023/05/14 11:07:41;;;;;;;15.98;11.02;;;;;;;;;;6221451;23;20020;-81
2023/05/14 11:10:18;;;;;;;18.50;10.55;;;;;;;;;;6221645;23;20044;-80
2023/05/14 11:12:46;;;;;;;16.25;10.43;;;;;;;;;;6220162;23;20016;-81
2023/05/14 11:15:14;;;;;;;17.70;9.82;;;;;;;;;;6219548;23;20083;-81
2023/05/14 11:17:41;;;;;;;15.35;9.75;;;;;;;;;;6222224;23;20035;-81
2023/05/14 11:20:08;;;;;;;15.73;10.15;;;;;;;;;;6220709;23;20017;-81
2023/05/14 11:22:34;;;;;;;19.90;10.30;;;;;;;;;;6221840;23;20019;-80
2023/05/14 11:25:00;;;;;;;15.68;10.27;;;;;;;;;;6221907;23;20012;-82
2023/05/14 11:27:25;;;;;;;14.77;9.80;;;;;;;;;;6220306;23;20013;-81
2023/05/14 11:29:51;;;;;;;20.02;11.27;;;;;;;;;;6222767;23;20012;-81
2023/05/14 11:32:19;;;;;;;22.63;11.48;;;;;;;;;;6222443;23;20091;-81
2023/05/14 11:34:45;;;;;;;17.88;10.30;;;;;;;;;;6223352;23;20019;-80
2023/05/14 11:37:13;;;;;;;21.25;11.23;;;;;;;;;;6224295;23;20016;-80
2023/05/14 11:39:46;;;;;;;18.80;11.48;;;;;;;;;;6223825;23;20396;-81
2023/05/14 11:42:13;;;;;;;16.70;10.35;;;;;;;;;;6222783;23;20011;-80
2023/05/14 11:44:39;;;;;;;15.60;10.25;;;;;;;;;;6221593;23;20056;-80
2023/05/14 11:47:05;;;;;;;17.33;9.88;;;;;;;;;;6223265;23;20071;-80
2023/05/14 11:50:09;;;;;;;15.85;9.75;;;;;;;;;;6223628;23;20023;-81
2023/05/14 11:52:39;;;;;;;13.45;8.15;;;;;;;;;;6212545;23;20467;-81
2023/05/14 11:55:05;;;;;;;19.60;11.13;;;;;;;;;;6218122;23;20068;-81
2023/05/14 11:57:30;;;;;;;18.05;10.18;;;;;;;;;;6217953;23;20012;-80
2023/05/14 11:59:56;;;;;;;16.75;10.52;;;;;;;;;;6218541;23;20366;-82
2023/05/14 12:02:22;;;;;;;16.70;10.18;;;;;;;;;;6217653;23;20012;-82
2023/05/14 12:04:52;;;;;;;18.92;12.07;;;;;;;;;;6215142;23;20086;-82
2023/05/14 12:07:17;;;;;;;23.05;12.32;;;;;;;;;;6216161;23;20083;-82
2023/05/14 12:09:48;;;;;;;20.05;11.68;;;;;;;;;;6217284;23;20020;-82
2023/05/14 12:12:16;;;;;;;17.85;10.77;;;;;;;;;;6217917;23;20761;-81
2023/05/14 12:14:42;;;;;;;21.45;11.63;;;;;;;;;;6214294;23;20030;-83
2023/05/14 12:17:21;;;;;;;15.48;9.45;;;;;;;;;;6217001;23;20016;-83
2023/05/14 12:19:49;;;;;;;15.43;9.60;;;;;;;;;;6216899;23;20012;-83
2023/05/14 12:22:20;;;;;;;15.65;9.82;;;;;;;;;;6216972;23;20023;-84
2023/05/14 12:24:56;;;;;;;16.63;10.10;;;;;;;;;;6216769;23;20016;-83
2023/05/14 12:27:23;;;;;;;12.10;8.90;;;;;;;;;;6214924;23;20340;-82
2023/05/14 12:29:52;;;;;;;13.10;9.30;;;;;;;;;;6214771;23;20349;-83
2023/05/14 12:32:18;;;;;;;17.13;11.13;;;;;;;;;;6216112;23;20016;-82
2023/05/14 12:34:44;;;;;;;13.15;9.85;;;;;;;;;;6216919;23;20381;-84
2023/05/14 12:37:09;;;;;;;15.25;10.32;;;;;;;;;;6215762;23;20024;-81
2023/05/14 12:39:35;;;;;;;14.07;9.73;;;;;;;;;;6216820;23;20013;-82
2023/05/14 12:42:00;;;;;;;12.65;9.30;;;;;;;;;;6218663;23;20079;-82
2023/05/14 12:44:25;;;;;;;14.98;9.38;;;;;;;;;;6216902;23;20464;-83
2023/05/14 12:46:51;;;;;;;11.52;7.45;;;;;;;;;;6216116;23;20456;-81
2023/05/14 12:49:16;;;;;;;14.65;8.27;;;;;;;;;;6216083;23;20039;-82
2023/05/14 12:51:42;;;;;;;12.52;8.13;;;;;;;;;;6214491;23;20027;-82
2023/05/14 12:54:07;;;;;;;12.02;8.60;;;;;;;;;;6216417;23;20004;-81
2023/05/14 12:56:32;;;;;;;11.25;7.65;;;;;;;;;;6215768;23;20043;-84
2023/05/14 12:58:58;;;;;;;9.55;6.80;;;;;;;;;;6215566;23;20397;-82
2023/05/14 13:01:23;;;;;;;13.00;7.80;;;;;;;;;;6217086;23;20195;-83
2023/05/14 13:03:49;;;;;;;11.70;8.07;;;;;;;;;;6217200;23;20143;-83
2023/05/14 13:06:15;;;;;;;9.98;6.78;;;;;;;;;;6217598;23;20027;-84
2023/05/14 13:08:40;;;;;;;14.65;7.03;;;;;;;;;;6241527;23;20075;-84
2023/05/14 13:11:05;;;;;;;12.00;8.23;;;;;;;;;;6218198;23;20021;-84
2023/05/14 13:13:31;;;;;;;11.70;8.00;;;;;;;;;;6215162;23;20086;-84
2023/05/14 13:15:56;;;;;;;10.73;7.75;;;;;;;;;;6216854;23;20609;-84
2023/05/14 13:18:21;;;;;;;9.68;6.53;;;;;;;;;;6215632;23;20020;-83
2023/05/14 13:20:47;;;;;;;9.85;6.80;;;;;;;;;;6217079;23;20012;-84
2023/05/14 13:23:13;;;;;;;8.63;6.53;;;;;;;;;;6217807;23;20040;-83
2023/05/14 13:25:38;;;;;;;12.15;7.68;;;;;;;;;;6215774;23;20398;-83
2023/05/14 13:28:03;;;;;;;10.75;7.35;;;;;;;;;;6217832;23;20008;-84
2023/05/14 13:30:30;;;;;;;10.57;8.27;;;;;;;;;;6218225;23;20016;-82
2023/05/14 13:32:56;;;;;;;10.35;7.55;;;;;;;;;;6217229;23;20011;-83
2023/05/14 13:35:21;;;;;;;10.00;7.35;;;;;;;;;;6215147;23;20095;-83
2023/05/14 13:37:46;;;;;;;12.27;5.80;;;;;;;;;;6216760;23;20043;-83
2023/05/14 13:40:12;;;;;;;8.70;6.50;;;;;;;;;;6215014;23;20078;-83
2023/05/14 13:42:38;;;;;;;8.77;6.40;;;;;;;;;;6218780;23;20020;-83
2023/05/14 13:45:05;;;;;;;8.95;6.10;;;;;;;;;;6217628;23;20008;-83
2023/05/14 13:47:30;;;;;;;7.82;6.10;;;;;;;;;;6219756;23;20008;-83
2023/05/14 13:49:55;;;;;;;6.32;5.18;;;;;;;;;;6215556;23;20484;-83
2023/05/14 13:52:21;;;;;;;9.10;5.25;;;;;;;;;;6219004;23;20024;-84
2023/05/14 13:54:47;;;;;;;7.13;5.72;;;;;;;;;;6241972;23;20055;-83
2023/05/14 13:57:12;;;;;;;9.98;5.55;;;;;;;;;;6218119;23;20031;-84
2023/05/14 13:59:38;;;;;;;7.68;5.30;;;;;;;;;;6218373;23;19997;-84
2023/05/14 14:02:04;;;;;;;6.20;5.20;;;;;;;;;;6216114;23;20039;-84
2023/05/14 14:04:29;;;;;;;7.88;4.93;;;;;;;;;;6214287;23;20040;-84
2023/05/14 14:06:55;;;;;;;5.38;4.88;;;;;;;;;;6215400;23;20016;-84
2023/05/14 14:09:20;;;;;;;6.70;5.00;;;;;;;;;;6213417;23;20000;-84
2023/05/14 14:11:46;;;;;;;5.75;4.95;;;;;;;;;;6214741;23;20011;-84
2023/05/14 14:14:12;;;;;;;7.88;4.70;;;;;;;;;;6215081;23;20047;-84
2023/05/14 14:16:37;;;;;;;5.20;4.57;;;;;;;;;;6216373;23;20020;-84
2023/05/14 14:19:02;;;;;;;5.03;4.53;;;;;;;;;;6214652;23;20040;-83